Time;durP1;ratioP1;P1;durP2;ratioP2;P2;SDS_P1;SDS_P2;PMS_P1;PMS_P2;Temp;Humidity;BMP_temperature;BMP_pressure;BME280_temperature;BME280_humidity;BME280_pressure;Samples;Min_cycle;Max_cycle;Signal;HPM_P1;HPM_P2
2023/10/06 00:01:53;;;;;;;10.20;4.50;;;;;;;12.30;100.00;101607.22;5041164;28;20423;-91
2023/10/06 00:04:22;;;;;;;10.00;4.77;;;;;;;12.30;100.00;101607.22;5033717;28;20982;-91
2023/10/06 00:06:50;;;;;;;10.48;4.60;;;;;;;12.27;100.00;101605.03;5054297;28;20440;-91
2023/10/06 00:09:28;;;;;;;12.23;5.10;;;;;;;12.25;100.00;101614.31;5040819;28;20413;-91
2023/10/06 00:11:56;;;;;;;12.63;5.32;;;;;;;12.30;100.00;101612.69;5037953;28;20419;-94
2023/10/06 00:17:28;;;;;;;10.70;5.10;;;;;;;12.38;100.00;101612.97;5141012;27;20401;-86
2023/10/06 00:19:59;;;;;;;12.23;5.30;;;;;;;12.42;100.00;101607.81;5111965;28;20441;-86
2023/10/06 00:22:29;;;;;;;11.10;5.38;;;;;;;12.46;100.00;101605.38;5104976;27;20432;-85
2023/10/06 00:24:59;;;;;;;13.37;5.80;;;;;;;12.37;100.00;101608.63;5100939;27;20426;-87
2023/10/06 00:27:30;;;;;;;15.18;6.28;;;;;;;12.48;100.00;101597.72;5099532;28;20417;-86
2023/10/06 00:29:59;;;;;;;12.32;6.32;;;;;;;12.36;100.00;101593.31;5109000;28;20419;-87
2023/10/06 00:32:29;;;;;;;14.05;5.68;;;;;;;12.42;100.00;101596.88;5095635;28;20424;-88
2023/10/06 00:35:08;;;;;;;12.18;5.90;;;;;;;12.56;100.00;101602.63;5115543;27;20796;-85
2023/10/06 00:37:38;;;;;;;13.02;6.35;;;;;;;12.44;100.00;101591.16;5097097;28;20428;-85
2023/10/06 00:40:19;;;;;;;17.13;6.75;;;;;;;12.48;100.00;101597.72;5101845;28;20437;-85
2023/10/06 00:42:51;;;;;;;14.13;6.07;;;;;;;12.55;100.00;101595.53;5117968;27;20426;-86
2023/10/06 00:45:22;;;;;;;14.93;6.38;;;;;;;12.49;100.00;101583.78;5104725;28;20411;-88
2023/10/06 00:47:53;;;;;;;12.88;6.18;;;;;;;12.41;100.00;101578.84;5104483;28;20421;-85
2023/10/06 00:50:24;;;;;;;11.90;6.20;;;;;;;12.42;100.00;101594.16;5098035;28;20440;-86
2023/10/06 00:52:53;;;;;;;12.55;6.05;;;;;;;12.54;100.00;101597.44;5110674;28;20423;-87
2023/10/06 00:55:22;;;;;;;14.52;6.88;;;;;;;12.51;100.00;101581.63;5096761;28;20904;-86
2023/10/06 00:57:53;;;;;;;13.25;6.57;;;;;;;12.41;100.00;101570.66;5101753;28;20432;-86
2023/10/06 01:00:24;;;;;;;17.50;6.40;;;;;;;12.50;100.00;101576.44;5096002;28;20413;-85
2023/10/06 01:02:54;;;;;;;14.10;6.32;;;;;;;12.46;100.00;101573.41;5101373;28;20432;-88
2023/10/06 01:05:25;;;;;;;15.65;7.05;;;;;;;12.55;100.00;101581.88;5098192;28;20985;-86
2023/10/06 01:07:59;;;;;;;14.35;6.43;;;;;;;12.37;100.00;101567.69;5113025;27;20417;-86
2023/10/06 01:10:34;;;;;;;14.32;6.93;;;;;;;12.25;100.00;101556.19;5097232;28;20426;-86
2023/10/06 01:13:12;;;;;;;15.10;7.10;;;;;;;12.13;100.00;101547.41;5096215;28;20426;-87
2023/10/06 01:15:48;;;;;;;16.63;7.30;;;;;;;12.33;100.00;101566.56;5103082;28;20844;-85
2023/10/06 01:18:23;;;;;;;15.25;7.50;;;;;;;12.41;100.00;101560.59;5098129;28;20428;-85
2023/10/06 01:20:52;;;;;;;14.70;7.13;;;;;;;12.30;100.00;101553.44;5105048;28;20421;-86
2023/10/06 01:23:22;;;;;;;17.80;7.93;;;;;;;12.29;100.00;101565.47;5112591;27;20421;-86
2023/10/06 01:25:54;;;;;;;15.77;7.32;;;;;;;12.24;100.00;101573.63;5104656;28;20429;-86
2023/10/06 01:28:24;;;;;;;17.30;8.20;;;;;;;12.21;100.00;101566.81;5088891;28;20418;-87
2023/10/06 01:30:52;;;;;;;16.13;7.80;;;;;;;12.30;100.00;101567.09;5089472;28;20431;-86
2023/10/06 01:33:21;;;;;;;17.25;8.40;;;;;;;12.43;100.00;101571.22;5096713;27;20417;-88
2023/10/06 01:35:49;;;;;;;16.15;7.95;;;;;;;12.32;100.00;101547.72;5077740;28;20425;-86
2023/10/06 01:38:22;;;;;;;17.00;7.97;;;;;;;12.36;100.00;101563.28;5082918;28;20453;-87
2023/10/06 01:40:53;;;;;;;17.08;8.40;;;;;;;12.18;100.00;101539.22;5088482;28;20423;-87
2023/10/06 01:43:24;;;;;;;15.73;8.10;;;;;;;12.26;100.00;101552.34;5090296;28;20427;-87
2023/10/06 01:45:53;;;;;;;17.80;8.68;;;;;;;12.21;100.00;101555.88;5082518;28;20433;-86
2023/10/06 01:48:24;;;;;;;16.80;8.17;;;;;;;12.34;100.00;101562.72;5090150;28;20428;-88
2023/10/06 01:50:55;;;;;;;16.55;8.65;;;;;;;12.14;100.00;101546.31;5077876;28;20427;-88
2023/10/06 01:53:25;;;;;;;16.75;8.63;;;;;;;12.33;100.00;101543.91;5096342;28;20418;-86
2023/10/06 01:55:55;;;;;;;19.98;8.80;;;;;;;12.23;100.00;101552.88;5088065;28;20888;-86
2023/10/06 01:58:23;;;;;;;19.45;8.55;;;;;;;12.17;100.00;101541.16;5082398;28;20454;-90
2023/10/06 02:00:51;;;;;;;21.55;9.57;;;;;;;12.15;100.00;101545.22;5100637;28;20410;-87
2023/10/06 02:03:21;;;;;;;16.73;8.90;;;;;;;12.18;100.00;101541.94;5084929;28;20417;-85
2023/10/06 02:05:50;;;;;;;20.05;9.40;;;;;;;12.24;100.00;101549.88;5086075;28;20414;-89
2023/10/06 02:08:23;;;;;;;17.95;9.40;;;;;;;12.14;100.00;101541.69;5107159;27;20424;-87
2023/10/06 02:10:54;;;;;;;17.33;9.80;;;;;;;12.03;100.00;101510.84;5082713;28;20418;-87
2023/10/06 02:13:24;;;;;;;21.30;9.80;;;;;;;12.13;100.00;101522.88;5090093;28;20575;-86
2023/10/06 02:15:58;;;;;;;22.77;10.57;;;;;;;11.98;100.00;101510.81;5081460;28;20423;-89
2023/10/06 02:18:35;;;;;;;23.52;10.25;;;;;;;12.03;100.00;101510.84;5082192;28;20416;-87
2023/10/06 02:21:11;;;;;;;20.25;10.07;;;;;;;12.04;100.00;101515.22;5085577;28;20406;-86
2023/10/06 02:23:41;;;;;;;20.95;10.50;;;;;;;11.96;100.00;101504.81;5075886;28;20423;-88
2023/10/06 02:26:12;;;;;;;21.38;11.35;;;;;;;11.86;100.00;101496.56;5089276;28;20424;-87
2023/10/06 02:28:48;;;;;;;20.60;10.50;;;;;;;11.82;100.00;101496.28;5086683;28;20416;-88
2023/10/06 02:31:19;;;;;;;17.85;10.60;;;;;;;11.87;100.00;101490.03;5087010;28;20420;-86
2023/10/06 02:33:49;;;;;;;23.75;10.43;;;;;;;12.03;100.00;101512.75;5075567;28;21871;-86
2023/10/06 02:36:21;;;;;;;25.27;11.23;;;;;;;12.03;100.00;101518.19;5075537;28;20894;-87
2023/10/06 02:38:51;;;;;;;23.27;11.37;;;;;;;11.89;100.00;101509.66;5099884;28;21065;-88
2023/10/06 02:41:21;;;;;;;26.42;11.27;;;;;;;11.99;100.00;101517.91;5088631;28;20421;-86
2023/10/06 02:43:51;;;;;;;23.45;11.35;;;;;;;12.01;100.00;101521.19;5089702;28;20421;-86
2023/10/06 02:46:23;;;;;;;26.17;11.60;;;;;;;11.99;100.00;101517.09;5102678;28;20902;-85
2023/10/06 02:48:52;;;;;;;22.85;10.98;;;;;;;11.96;100.00;101512.16;5081683;28;20418;-85
2023/10/06 02:51:28;;;;;;;31.00;11.93;;;;;;;11.87;100.00;101503.66;5086104;28;21011;-86
2023/10/06 02:54:09;;;;;;;25.63;11.52;;;;;;;11.95;100.00;101513.28;5089762;28;20420;-90
2023/10/06 02:56:40;;;;;;;22.45;11.13;;;;;;;11.92;100.00;101506.41;5081801;28;20409;-88
2023/10/06 02:59:20;;;;;;;23.10;11.40;;;;;;;11.95;100.00;101505.91;5087590;28;20801;-87
2023/10/06 03:01:52;;;;;;;22.80;11.40;;;;;;;11.93;100.00;101505.31;5080223;28;20931;-86
2023/10/06 03:04:25;;;;;;;24.70;11.57;;;;;;;12.02;100.00;101498.28;5085610;28;20418;-87
2023/10/06 03:06:55;;;;;;;25.03;11.07;;;;;;;11.97;100.00;101492.00;5087106;28;20521;-88
2023/10/06 03:09:36;;;;;;;25.00;11.13;;;;;;;11.76;100.00;101482.91;5082413;28;20421;-86
2023/10/06 03:12:11;;;;;;;25.27;10.27;;;;;;;11.87;100.00;101490.03;5082359;28;20417;-87
2023/10/06 03:14:41;;;;;;;22.17;10.60;;;;;;;11.78;100.00;101480.72;5086541;28;20419;-87
2023/10/06 03:17:13;;;;;;;21.33;10.32;;;;;;;11.77;100.00;101479.09;5081219;28;20908;-87
2023/10/06 03:19:44;;;;;;;22.57;10.80;;;;;;;11.90;100.00;101506.69;5082684;28;20414;-89
2023/10/06 03:22:13;;;;;;;22.17;10.43;;;;;;;11.97;100.00;101506.44;5090493;28;20420;-88
2023/10/06 03:24:53;;;;;;;21.95;9.30;;;;;;;11.84;100.00;101488.66;5089439;28;20806;-89
2023/10/06 03:27:23;;;;;;;22.20;10.10;;;;;;;11.90;100.00;101492.22;5081901;28;20420;-87
2023/10/06 03:29:55;;;;;;;23.10;9.85;;;;;;;11.78;100.00;101472.53;5084616;28;20431;-87
2023/10/06 03:32:32;;;;;;;18.98;9.48;;;;;;;11.81;100.00;101469.28;5087251;28;20418;-86
2023/10/06 03:35:14;;;;;;;22.23;9.90;;;;;;;11.86;100.00;101481.03;5080347;28;20925;-87
2023/10/06 03:37:51;;;;;;;20.50;9.23;;;;;;;12.00;100.00;101483.25;5079717;28;20435;-88
2023/10/06 03:40:23;;;;;;;23.63;9.77;;;;;;;11.83;100.00;101469.84;5082267;28;20424;-86
2023/10/06 03:42:52;;;;;;;20.77;9.07;;;;;;;11.98;100.00;101478.06;5089612;28;20432;-86
2023/10/06 03:45:31;;;;;;;18.48;8.70;;;;;;;12.04;100.00;101474.28;5091434;28;20410;-87
2023/10/06 03:48:11;;;;;;;21.30;9.45;;;;;;;12.00;100.00;101462.28;5079245;28;20427;-87
2023/10/06 03:50:43;;;;;;;19.50;9.07;;;;;;;12.10;100.00;101477.00;5089133;28;21057;-87
2023/10/06 03:53:14;;;;;;;19.63;9.13;;;;;;;12.04;100.00;101466.09;5085704;28;20901;-86
2023/10/06 03:55:44;;;;;;;21.40;9.27;;;;;;;12.06;100.00;101474.00;5083129;28;20411;-87
2023/10/06 03:58:14;;;;;;;18.67;9.05;;;;;;;11.96;100.00;101460.34;5070249;28;20423;-87
2023/10/06 04:00:49;;;;;;;20.42;8.77;;;;;;;11.94;100.00;101465.22;5088622;28;20765;-88
2023/10/06 04:03:18;;;;;;;20.77;9.00;;;;;;;11.97;100.00;101456.53;5082421;28;20429;-87
2023/10/06 04:05:48;;;;;;;20.13;9.18;;;;;;;12.00;100.00;101462.28;5090069;28;20434;-86
2023/10/06 04:08:20;;;;;;;20.10;9.48;;;;;;;12.04;100.00;101466.09;5074459;28;20429;-87
2023/10/06 04:10:53;;;;;;;18.98;8.73;;;;;;;12.02;100.00;101465.53;5084170;28;20420;-88
2023/10/06 04:13:22;;;;;;;23.45;10.20;;;;;;;11.99;100.00;101454.38;5081097;28;20432;-86
2023/10/06 04:15:53;;;;;;;20.30;9.50;;;;;;;12.07;100.00;101451.91;5079968;28;20439;-85
2023/10/06 04:18:23;;;;;;;18.60;10.10;;;;;;;12.04;100.00;101457.91;5081337;28;20422;-87
2023/10/06 04:20:53;;;;;;;21.65;9.88;;;;;;;11.87;100.00;101439.00;5079098;28;20433;-87
2023/10/06 04:23:22;;;;;;;20.08;10.05;;;;;;;11.99;100.00;101451.63;5080826;28;20426;-86
2023/10/06 04:25:54;;;;;;;22.55;10.65;;;;;;;12.20;100.00;101456.00;5082118;28;20906;-88
2023/10/06 04:28:28;;;;;;;20.55;9.77;;;;;;;12.17;100.00;101455.75;5079737;28;20420;-90
2023/10/06 04:31:00;;;;;;;20.83;9.70;;;;;;;12.01;100.00;101442.06;5081673;28;20416;-89
2023/10/06 04:33:29;;;;;;;21.02;10.63;;;;;;;12.02;100.00;101448.34;5085772;28;20422;-87
2023/10/06 04:35:59;;;;;;;23.00;10.90;;;;;;;11.95;100.00;101428.72;5085182;28;20800;-87
2023/10/06 04:38:31;;;;;;;21.83;11.25;;;;;;;12.01;100.00;101436.59;5084763;28;20431;-86
2023/10/06 04:41:00;;;;;;;23.13;11.52;;;;;;;12.05;100.00;101434.97;5081567;28;20423;-90
2023/10/06 04:43:28;;;;;;;22.98;10.93;;;;;;;11.92;100.00;101419.13;5080121;28;20938;-87
2023/10/06 04:45:58;;;;;;;25.40;11.63;;;;;;;12.01;100.00;101427.63;5074473;28;21104;-87
2023/10/06 04:48:26;;;;;;;22.90;11.80;;;;;;;12.05;100.00;101418.59;5079013;28;20411;-88
2023/10/06 04:50:55;;;;;;;25.15;11.55;;;;;;;11.94;100.00;101418.84;5074491;28;20431;-87
2023/10/06 04:53:24;;;;;;;23.08;10.98;;;;;;;12.00;100.00;101424.09;5086350;28;20422;-87
2023/10/06 04:55:52;;;;;;;22.42;10.93;;;;;;;11.99;100.00;101421.63;5081234;28;20895;-86
2023/10/06 04:58:20;;;;;;;20.27;11.15;;;;;;;11.91;100.00;101414.75;5078153;28;21142;-87
2023/10/06 05:00:53;;;;;;;21.90;11.60;;;;;;;11.97;100.00;101419.13;5100860;28;20441;-88
2023/10/06 05:03:23;;;;;;;25.98;11.77;;;;;;;11.95;100.00;101410.44;5099188;27;20430;-90
2023/10/06 05:05:55;;;;;;;25.45;11.50;;;;;;;11.89;100.00;101416.91;5098392;27;20418;-87
2023/10/06 05:08:24;;;;;;;19.70;10.88;;;;;;;11.89;100.00;101401.38;5082551;28;20417;-87
2023/10/06 05:10:55;;;;;;;21.45;11.70;;;;;;;11.82;100.00;101373.56;5087619;28;20441;-87
2023/10/06 05:13:26;;;;;;;22.75;11.82;;;;;;;11.90;100.00;101383.09;5087226;28;20494;-88
2023/10/06 05:15:55;;;;;;;24.30;11.70;;;;;;;11.86;100.00;101390.19;5089471;28;20421;-88
2023/10/06 05:18:25;;;;;;;22.77;11.57;;;;;;;11.83;100.00;101364.28;5088198;28;20796;-86
2023/10/06 05:20:53;;;;;;;25.17;11.30;;;;;;;12.03;100.00;101381.81;5082713;28;20425;-88
2023/10/06 05:23:27;;;;;;;22.35;11.05;;;;;;;12.00;100.00;101379.59;5075822;28;20431;-89
2023/10/06 05:26:02;;;;;;;21.08;11.25;;;;;;;11.90;100.00;101370.31;5084350;28;20844;-89
2023/10/06 05:28:31;;;;;;;27.17;11.02;;;;;;;11.85;100.00;101366.75;5082953;28;20434;-88
2023/10/06 05:30:59;;;;;;;19.80;10.18;;;;;;;11.98;100.00;101393.50;5090948;28;20421;-87
2023/10/06 05:33:29;;;;;;;18.67;10.13;;;;;;;11.90;100.00;101394.00;5082302;28;20426;-86
2023/10/06 05:35:58;;;;;;;22.92;10.73;;;;;;;11.99;100.00;101388.91;5078932;28;20434;-86
2023/10/06 05:38:26;;;;;;;18.90;10.13;;;;;;;11.91;100.00;101354.75;5089408;28;20428;-90
2023/10/06 05:40:55;;;;;;;22.60;9.68;;;;;;;11.87;100.00;101359.91;5076945;28;20948;-88
2023/10/06 05:43:28;;;;;;;22.52;10.23;;;;;;;12.05;100.00;101383.13;5081969;28;20414;-86
2023/10/06 05:45:57;;;;;;;20.05;9.45;;;;;;;11.94;100.00;101356.97;5081207;28;20417;-86
2023/10/06 05:48:30;;;;;;;18.25;9.63;;;;;;;11.98;100.00;101366.22;5084729;28;20435;-86
2023/10/06 05:51:04;;;;;;;19.70;9.30;;;;;;;12.02;100.00;101372.78;5080850;28;20908;-87
2023/10/06 05:53:38;;;;;;;17.20;8.68;;;;;;;12.04;100.00;101375.22;5089316;28;20430;-86
2023/10/06 05:56:07;;;;;;;16.17;8.38;;;;;;;12.18;100.00;101376.34;5078126;28;20435;-89
2023/10/06 05:58:37;;;;;;;17.63;8.93;;;;;;;12.07;100.00;101374.72;5100962;28;20982;-87
2023/10/06 06:01:06;;;;;;;19.10;8.75;;;;;;;12.11;100.00;101381.25;5084605;28;20419;-88
2023/10/06 06:03:42;;;;;;;19.10;8.50;;;;;;;12.06;100.00;101375.78;5086417;28;20434;-85
2023/10/06 06:06:14;;;;;;;15.00;8.02;;;;;;;12.12;100.00;101384.78;5087070;28;20424;-86
2023/10/06 06:08:47;;;;;;;17.02;8.45;;;;;;;12.07;100.00;101380.16;5089687;28;20422;-87
2023/10/06 06:11:15;;;;;;;18.60;8.10;;;;;;;12.08;100.00;101371.72;5091060;28;20513;-89
2023/10/06 06:13:44;;;;;;;16.95;8.00;;;;;;;12.09;100.00;101367.06;5106336;27;20417;-87
2023/10/06 06:16:15;;;;;;;17.70;8.40;;;;;;;11.96;100.00;101353.94;5090426;28;20426;-88
2023/10/06 06:18:44;;;;;;;17.80;8.35;;;;;;;11.92;100.00;101353.66;5087366;28;20418;-86
2023/10/06 06:21:16;;;;;;;17.75;8.10;;;;;;;12.04;100.00;101359.69;5083187;28;20448;-87
2023/10/06 06:23:46;;;;;;;19.15;7.82;;;;;;;12.04;100.00;101354.25;5087941;28;20420;-88
2023/10/06 06:26:17;;;;;;;21.10;8.05;;;;;;;12.08;100.00;101349.03;5085792;28;20418;-87
2023/10/06 06:28:45;;;;;;;18.60;7.82;;;;;;;11.92;100.00;101323.66;5085856;28;20884;-87
2023/10/06 06:31:16;;;;;;;17.80;7.85;;;;;;;12.09;100.00;101342.50;5078851;28;20973;-87
2023/10/06 06:33:55;;;;;;;23.42;8.13;;;;;;;12.14;100.00;101337.06;5082907;28;20824;-86
2023/10/06 06:36:26;;;;;;;17.38;7.25;;;;;;;12.14;100.00;101328.88;5084853;28;20419;-88
2023/10/06 06:38:55;;;;;;;20.48;7.35;;;;;;;12.12;100.00;101324.78;5087254;28;20426;-86
2023/10/06 06:41:23;;;;;;;16.63;7.00;;;;;;;12.17;100.00;101332.97;5087740;28;21381;-85
2023/10/06 06:43:57;;;;;;;16.55;7.90;;;;;;;12.19;100.00;101339.78;5086670;28;20804;-87
2023/10/06 06:46:29;;;;;;;15.57;7.13;;;;;;;12.18;100.00;101332.69;5077115;28;20446;-87
2023/10/06 06:48:59;;;;;;;16.65;7.25;;;;;;;12.23;100.00;101343.56;5081563;28;20421;-84
2023/10/06 06:51:30;;;;;;;19.27;7.05;;;;;;;12.30;100.00;101326.91;5078884;28;20433;-85
2023/10/06 06:53:58;;;;;;;16.50;7.40;;;;;;;12.34;100.00;101341.66;5082834;28;20908;-86
2023/10/06 06:56:28;;;;;;;16.70;6.50;;;;;;;12.29;100.00;101325.31;5080454;28;20446;-85
2023/10/06 06:59:00;;;;;;;16.52;6.82;;;;;;;12.24;100.00;101325.31;5082673;28;20433;-84
2023/10/06 07:01:33;;;;;;;15.10;6.53;;;;;;;12.27;100.00;101313.03;5077057;28;20784;-85
2023/10/06 07:04:02;;;;;;;18.05;7.50;;;;;;;12.27;100.00;101313.03;5078909;28;20433;-85
2023/10/06 07:06:32;;;;;;;17.63;7.00;;;;;;;12.18;100.00;101312.75;5079135;28;20423;-85
2023/10/06 07:09:00;;;;;;;19.38;7.30;;;;;;;12.27;100.00;101322.00;5078504;28;20429;-87
2023/10/06 07:11:34;;;;;;;19.25;7.30;;;;;;;12.31;100.00;101320.38;5079743;28;20424;-84
2023/10/06 07:14:13;;;;;;;15.43;7.38;;;;;;;12.30;100.00;101318.72;5087177;28;20432;-85
2023/10/06 07:16:43;;;;;;;18.40;6.90;;;;;;;12.49;100.00;101312.69;5081203;28;20433;-86
2023/10/06 07:19:14;;;;;;;18.77;6.95;;;;;;;12.45;100.00;101326.06;5040650;28;20464;-87
2023/10/06 07:21:50;;;;;;;20.08;6.90;;;;;;;12.50;100.00;101317.06;5059713;28;21205;-86
2023/10/06 07:24:19;;;;;;;16.92;6.32;;;;;;;12.55;100.00;101327.97;5057456;28;20426;-86
2023/10/06 07:26:50;;;;;;;13.98;6.03;;;;;;;12.63;100.00;101323.84;5068763;28;20414;-84
2023/10/06 07:29:18;;;;;;;20.03;6.80;;;;;;;12.59;100.00;101318.13;5046505;28;20487;-87
2023/10/06 07:31:48;;;;;;;18.42;6.10;;;;;;;12.53;100.00;101322.78;5052229;28;20804;-87
2023/10/06 07:34:17;;;;;;;14.70;6.15;;;;;;;12.57;100.00;101325.78;5047643;28;20438;-88
2023/10/06 07:36:47;;;;;;;16.50;6.57;;;;;;;12.55;100.00;101317.03;5040224;28;20459;-84
2023/10/06 07:40:05;;;;;;;15.38;6.40;;;;;;;12.41;100.00;101306.72;5053935;28;20441;-84
2023/10/06 07:42:55;;;;;;;20.07;7.20;;;;;;;12.61;100.00;101312.38;4983476;28;20859;-86
2023/10/06 07:45:30;;;;;;;19.00;6.22;;;;;;;12.59;100.00;101301.72;5049949;28;20427;-85
2023/10/06 07:47:58;;;;;;;15.18;6.15;;;;;;;12.73;100.00;101324.63;5062198;28;20433;-85
2023/10/06 07:50:28;;;;;;;17.85;6.03;;;;;;;12.81;100.00;101333.34;5047982;28;20426;-86
2023/10/06 07:52:57;;;;;;;15.07;6.20;;;;;;;12.74;100.00;101336.38;5051730;28;20469;-85
2023/10/06 07:55:26;;;;;;;14.00;6.28;;;;;;;12.73;100.00;101330.09;5040726;28;20425;-86
2023/10/06 07:57:58;;;;;;;19.03;6.17;;;;;;;12.72;100.00;101344.84;5047007;28;20423;-86
2023/10/06 08:00:38;;;;;;;17.67;6.27;;;;;;;12.87;100.00;101330.31;5042519;28;20430;-86
2023/10/06 08:03:07;;;;;;;16.70;5.75;;;;;;;12.93;100.00;101339.31;5046267;28;20449;-86
2023/10/06 08:05:35;;;;;;;14.27;5.57;;;;;;;13.04;100.00;101335.44;5056239;28;21327;-85
2023/10/06 08:08:04;;;;;;;15.73;6.55;;;;;;;13.08;100.00;101311.91;5059349;28;20438;-85
2023/10/06 08:10:33;;;;;;;17.80;8.05;;;;;;;13.27;100.00;101303.06;5054453;28;20445;-86
2023/10/06 08:13:07;;;;;;;19.65;7.80;;;;;;;13.27;100.00;101305.78;5044635;28;20426;-88
2023/10/06 08:15:40;;;;;;;13.10;5.65;;;;;;;13.36;100.00;101300.59;5047934;28;21178;-88
2023/10/06 08:18:09;;;;;;;16.40;5.50;;;;;;;13.46;100.00;101308.72;5049309;28;20452;-85
2023/10/06 08:20:40;;;;;;;16.25;5.65;;;;;;;13.38;100.00;101323.81;5025463;28;20439;-86
2023/10/06 08:23:08;;;;;;;15.85;5.30;;;;;;;13.37;100.00;101313.16;5036252;28;20432;-88
2023/10/06 08:25:36;;;;;;;13.05;5.25;;;;;;;13.30;100.00;101309.88;5031080;28;20444;-86
2023/10/06 08:28:08;;;;;;;13.32;5.30;;;;;;;13.16;100.00;101299.59;5041940;28;20424;-89
2023/10/06 08:30:42;;;;;;;15.38;5.10;;;;;;;13.24;100.00;101300.88;5042574;28;21317;-86
2023/10/06 08:33:11;;;;;;;14.18;5.18;;;;;;;13.31;100.00;101290.44;5038003;28;21220;-85
2023/10/06 08:35:41;;;;;;;15.45;5.10;;;;;;;13.23;100.00;101296.50;5031427;28;20419;-86
2023/10/06 08:38:10;;;;;;;14.20;4.90;;;;;;;13.30;100.00;101282.53;5038798;28;20926;-86
2023/10/06 08:40:43;;;;;;;13.00;5.25;;;;;;;13.24;100.00;101273.56;5044819;28;20821;-87
2023/10/06 08:43:20;;;;;;;14.32;5.00;;;;;;;13.23;100.00;101282.84;5046057;28;20438;-86
2023/10/06 08:45:48;;;;;;;12.63;4.82;;;;;;;13.07;100.00;101282.94;5048728;28;20794;-85
2023/10/06 08:48:19;;;;;;;12.55;4.97;;;;;;;13.19;100.00;101304.47;5034804;28;20949;-87
2023/10/06 08:50:49;;;;;;;13.15;4.78;;;;;;;13.16;100.00;101293.28;5040889;28;20427;-85
2023/10/06 08:53:19;;;;;;;15.30;4.45;;;;;;;13.08;100.00;101292.78;5037163;28;20458;-86
2023/10/06 08:55:47;;;;;;;13.25;4.70;;;;;;;13.14;100.00;101290.03;5035529;28;20430;-84
2023/10/06 08:58:17;;;;;;;15.07;4.60;;;;;;;13.07;100.00;101301.28;5038649;28;20443;-86
2023/10/06 09:00:46;;;;;;;15.20;4.65;;;;;;;13.07;100.00;101310.28;5036714;28;20446;-86
2023/10/06 09:03:21;;;;;;;15.00;5.22;;;;;;;13.02;100.00;101301.28;5037825;28;20446;-88
2023/10/06 09:05:50;;;;;;;15.88;5.43;;;;;;;13.03;100.00;101292.81;5036116;28;20443;-87
2023/10/06 09:08:21;;;;;;;17.65;6.90;;;;;;;12.96;100.00;101291.50;5040006;28;20426;-86
2023/10/06 09:10:51;;;;;;;14.13;5.05;;;;;;;12.95;100.00;101304.31;5058763;28;21239;-85
2023/10/06 09:13:22;;;;;;;14.25;5.25;;;;;;;12.97;100.00;101304.03;5037311;28;20462;-86
2023/10/06 09:16:10;;;;;;;13.30;5.20;;;;;;;12.71;100.00;101290.50;5034913;28;20524;-84
2023/10/06 09:18:39;;;;;;;15.50;5.47;;;;;;;12.87;100.00;101293.97;5037103;28;20458;-86
2023/10/06 09:21:13;;;;;;;17.58;5.60;;;;;;;12.74;100.00;101271.63;5040067;28;20438;-85
2023/10/06 09:23:41;;;;;;;15.10;5.80;;;;;;;12.78;100.00;101262.91;5042970;28;20948;-88
2023/10/06 09:26:13;;;;;;;15.80;5.47;;;;;;;12.93;100.00;101266.34;5042758;28;20431;-88
2023/10/06 09:28:55;;;;;;;13.70;5.35;;;;;;;12.94;100.00;101259.00;5039309;28;20910;-87
2023/10/06 09:31:35;;;;;;;16.70;5.53;;;;;;;12.97;100.00;101280.28;5046677;28;21992;-86
2023/10/06 09:34:10;;;;;;;14.97;4.93;;;;;;;13.08;100.00;101270.94;5035989;28;20486;-87
2023/10/06 09:36:42;;;;;;;13.85;5.30;;;;;;;13.12;100.00;101275.81;5039093;28;20420;-86
2023/10/06 09:39:17;;;;;;;13.38;4.97;;;;;;;13.04;100.00;101266.31;5049526;28;20430;-84
2023/10/06 09:41:48;;;;;;;12.47;5.00;;;;;;;12.92;100.00;101274.84;5040272;28;21474;-88
2023/10/06 09:44:19;;;;;;;12.95;5.00;;;;;;;12.95;100.00;101274.25;5049823;28;20431;-86
2023/10/06 09:46:53;;;;;;;13.77;4.78;;;;;;;12.91;100.00;101254.06;5040336;28;20439;-87
2023/10/06 09:49:22;;;;;;;13.70;5.13;;;;;;;13.05;100.00;101268.75;5040937;28;20423;-86
2023/10/06 09:51:53;;;;;;;13.65;4.53;;;;;;;13.06;100.00;101253.19;5048145;28;20442;-87
2023/10/06 09:54:23;;;;;;;11.35;4.35;;;;;;;13.00;100.00;101266.06;5037065;28;20450;-86
2023/10/06 09:56:55;;;;;;;12.32;4.40;;;;;;;13.13;100.00;101267.34;5041897;28;20427;-85
2023/10/06 09:59:26;;;;;;;13.95;4.60;;;;;;;12.99;100.00;101261.69;5045550;28;20427;-87
2023/10/06 10:01:57;;;;;;;9.88;4.05;;;;;;;13.25;100.00;101276.00;5048316;28;20419;-87
2023/10/06 10:04:30;;;;;;;11.30;4.43;;;;;;;13.15;100.00;101269.81;5050782;28;20792;-87
2023/10/06 10:07:02;;;;;;;12.95;4.60;;;;;;;13.38;100.00;101265.56;5043136;28;20427;-88
2023/10/06 10:09:35;;;;;;;11.93;4.53;;;;;;;13.21;100.00;101241.34;5049843;28;20423;-87
2023/10/06 10:12:19;;;;;;;12.97;4.57;;;;;;;13.27;100.00;101243.75;5044129;28;20435;-87
2023/10/06 10:15:02;;;;;;;16.23;4.50;;;;;;;13.20;100.00;101231.50;5045909;28;20427;-88
2023/10/06 10:17:43;;;;;;;14.90;5.07;;;;;;;13.33;100.00;101227.31;5040577;28;20415;-85
2023/10/06 10:20:15;;;;;;;12.90;4.60;;;;;;;13.32;100.00;101209.28;5031552;28;20504;-86
2023/10/06 10:22:44;;;;;;;13.07;4.97;;;;;;;13.36;100.00;101230.31;5059665;28;20437;-88
2023/10/06 10:25:13;;;;;;;10.40;4.60;;;;;;;13.43;100.00;101235.47;5051493;28;20789;-86
2023/10/06 10:27:44;;;;;;;13.75;4.75;;;;;;;13.40;100.00;101225.09;5060426;28;20892;-87
2023/10/06 10:30:49;;;;;;;13.73;4.93;;;;;;;13.48;100.00;101224.50;5056620;28;20435;-88
2023/10/06 10:33:21;;;;;;;12.80;4.78;;;;;;;13.50;100.00;101218.72;5049668;28;20434;-85
2023/10/06 10:36:22;;;;;;;13.13;4.65;;;;;;;13.76;100.00;101211.13;5046668;28;20426;-86
2023/10/06 10:39:09;;;;;;;11.77;4.22;;;;;;;13.61;100.00;101204.66;5053407;28;20463;-87
2023/10/06 10:41:38;;;;;;;14.32;4.28;;;;;;;13.51;100.00;101212.16;5054621;28;20437;-85
2023/10/06 10:44:12;;;;;;;11.75;4.40;;;;;;;13.49;100.00;101211.63;5055004;28;20429;-87
2023/10/06 10:46:48;;;;;;;12.23;4.60;;;;;;;13.43;100.00;101211.66;5046138;28;20446;-87
2023/10/06 10:49:19;;;;;;;10.73;4.18;;;;;;;13.44;100.00;101202.38;5048129;28;20440;-85
2023/10/06 10:51:52;;;;;;;16.00;5.10;;;;;;;13.30;100.00;101198.63;5049768;28;20933;-85
2023/10/06 10:54:21;;;;;;;11.63;4.70;;;;;;;13.07;100.00;101200.97;5055502;28;20435;-86
2023/10/06 10:56:53;;;;;;;12.40;5.05;;;;;;;13.14;100.00;101203.38;5052025;28;20462;-88
2023/10/06 10:59:22;;;;;;;12.38;5.07;;;;;;;12.92;100.00;101201.88;5057509;28;20416;-85
2023/10/06 11:01:53;;;;;;;12.70;5.72;;;;;;;12.96;100.00;101218.53;5029348;28;20428;-87
2023/10/06 11:04:29;;;;;;;10.77;5.40;;;;;;;12.82;100.00;101203.88;5027553;28;20426;-87
2023/10/06 11:07:01;;;;;;;13.00;5.75;;;;;;;12.92;100.00;101193.69;5029474;28;20445;-85
2023/10/06 11:09:36;;;;;;;10.82;5.60;;;;;;;13.05;100.00;101208.66;5027013;28;20451;-88
2023/10/06 11:12:17;;;;;;;12.00;5.80;;;;;;;12.80;100.00;101186.94;5030482;28;20423;-87
2023/10/06 11:14:46;;;;;;;17.17;6.13;;;;;;;12.86;100.00;101202.22;5031270;28;20425;-87
2023/10/06 11:17:21;;;;;;;12.77;5.80;;;;;;;12.67;100.00;101169.28;5034483;28;20431;-88
2023/10/06 11:20:01;;;;;;;13.25;6.53;;;;;;;12.81;100.00;101183.94;5043409;28;20439;-88
2023/10/06 11:22:43;;;;;;;13.65;6.15;;;;;;;12.69;100.00;101167.06;5058856;28;20419;-87
2023/10/06 11:25:16;;;;;;;13.60;6.20;;;;;;;12.59;100.00;101171.50;5059620;28;20423;-88
2023/10/06 11:27:45;;;;;;;16.85;7.15;;;;;;;12.62;100.00;101172.03;5059452;28;20442;-87
2023/10/06 11:30:15;;;;;;;17.58;7.05;;;;;;;12.60;100.00;101155.94;5056008;28;20419;-86
2023/10/06 11:32:45;;;;;;;16.15;6.47;;;;;;;12.74;100.00;101173.31;5058268;28;20427;-86